createdAt,value
2023-03-15T00:01:52.938Z,1.50
2023-03-15T00:04:19.942Z,1.48
2023-03-15T00:06:49.576Z,1.75
2023-03-15T00:09:16.440Z,1.40
2023-03-15T00:11:43.582Z,1.48
2023-03-15T00:14:10.941Z,1.60
2023-03-15T00:16:38.077Z,1.42
2023-03-15T00:19:12.783Z,1.60
2023-03-15T00:21:43.151Z,1.48
2023-03-15T00:24:12.980Z,1.40
2023-03-15T00:26:40.129Z,1.45
2023-03-15T00:29:06.962Z,1.40
2023-03-15T00:31:34.338Z,1.40
2023-03-15T00:34:01.216Z,1.60
2023-03-15T00:36:28.503Z,1.40
2023-03-15T00:38:56.452Z,1.58
2023-03-15T00:41:24.336Z,1.80
2023-03-15T00:43:52.291Z,1.60
2023-03-15T00:46:20.134Z,1.80
2023-03-15T00:48:51.648Z,1.50
2023-03-15T00:51:21.783Z,1.33
2023-03-15T00:53:50.657Z,1.67
2023-03-15T00:56:25.902Z,1.67
2023-03-15T00:58:53.162Z,1.70
2023-03-15T01:01:31.654Z,1.98
2023-03-15T01:03:58.526Z,1.70
2023-03-15T01:06:36.313Z,1.80
2023-03-15T01:09:04.116Z,1.95
2023-03-15T01:11:31.639Z,2.35
2023-03-15T01:13:59.933Z,2.45
2023-03-15T01:16:28.367Z,2.47
2023-03-15T01:18:56.356Z,2.05
2023-03-15T01:21:32.126Z,2.05
2023-03-15T01:23:58.998Z,2.33
2023-03-15T01:26:26.171Z,2.78
2023-03-15T01:28:53.190Z,2.42
2023-03-15T01:31:24.056Z,2.47
2023-03-15T01:33:51.093Z,1.98
2023-03-15T01:36:18.732Z,7.88
2023-03-15T01:38:45.835Z,2.00
2023-03-15T01:41:14.309Z,2.10
2023-03-15T01:43:47.328Z,1.73
2023-03-15T01:46:25.592Z,2.20
2023-03-15T01:52:03.110Z,3.22
2023-03-15T01:54:29.922Z,2.88
2023-03-15T01:57:17.694Z,2.75
2023-03-15T02:00:00.072Z,3.22
2023-03-15T02:02:27.401Z,3.00
2023-03-15T02:05:32.807Z,2.88
2023-03-15T02:08:01.888Z,2.20
2023-03-15T02:10:37.138Z,2.40
2023-03-15T02:13:05.484Z,2.10
2023-03-15T02:15:33.283Z,2.45
2023-03-15T02:18:00.568Z,2.38
2023-03-15T02:20:45.518Z,2.65
2023-03-15T02:23:18.963Z,2.20
2023-03-15T02:25:45.738Z,2.38
2023-03-15T02:28:16.328Z,2.22
2023-03-15T02:30:44.148Z,2.17
2023-03-15T02:33:18.977Z,2.70
2023-03-15T02:35:45.989Z,2.38
2023-03-15T02:38:13.237Z,2.30
2023-03-15T02:40:40.752Z,2.45
2023-03-15T02:43:13.494Z,2.47
2023-03-15T02:45:41.040Z,2.33
2023-03-15T02:48:10.918Z,2.20
2023-03-15T02:50:38.221Z,2.40
2023-03-15T02:53:05.980Z,2.28
2023-03-15T02:55:32.927Z,2.20
2023-03-15T02:58:00.994Z,2.50
2023-03-15T03:00:28.751Z,2.83
2023-03-15T03:02:55.996Z,2.35
2023-03-15T03:05:23.152Z,2.35
2023-03-15T03:07:50.973Z,2.47
2023-03-15T03:10:20.342Z,2.20
2023-03-15T03:12:47.728Z,2.15
2023-03-15T03:15:14.523Z,2.50
2023-03-15T03:17:41.721Z,2.38
2023-03-15T03:20:11.741Z,2.40
2023-03-15T03:22:39.800Z,2.60
2023-03-15T03:25:09.907Z,2.30
2023-03-15T03:27:37.248Z,2.00
2023-03-15T03:30:14.316Z,2.55
2023-03-15T03:32:41.807Z,2.35
2023-03-15T03:35:09.212Z,2.60
2023-03-15T03:37:36.315Z,2.45
2023-03-15T03:40:11.918Z,2.45
2023-03-15T03:42:39.140Z,3.58
2023-03-15T03:45:07.153Z,2.63
2023-03-15T03:47:34.336Z,3.00
2023-03-15T03:50:21.232Z,2.53
2023-03-15T03:52:48.371Z,2.80
2023-03-15T03:55:15.246Z,2.67
2023-03-15T03:57:43.042Z,2.55
2023-03-15T04:00:14.365Z,2.33
2023-03-15T04:02:47.002Z,2.53
2023-03-15T04:05:14.049Z,3.47
2023-03-15T04:07:41.671Z,2.95
2023-03-15T04:10:09.219Z,2.67
2023-03-15T04:12:36.283Z,3.20
2023-03-15T04:15:03.586Z,3.13
2023-03-15T04:17:30.747Z,3.33
2023-03-15T04:19:58.089Z,2.97
2023-03-15T04:22:25.224Z,2.90
2023-03-15T04:24:52.047Z,2.70
2023-03-15T04:27:19.176Z,3.17
2023-03-15T04:29:46.038Z,3.50
2023-03-15T04:32:13.164Z,3.70
2023-03-15T04:34:40.056Z,2.90
2023-03-15T04:37:07.301Z,4.05
2023-03-15T04:39:34.160Z,3.00
2023-03-15T04:42:01.263Z,3.00
2023-03-15T04:44:28.198Z,3.30
2023-03-15T04:46:58.346Z,3.08
2023-03-15T04:49:28.163Z,3.50
2023-03-15T04:51:55.355Z,3.30
2023-03-15T04:54:23.382Z,3.42
2023-03-15T04:56:50.697Z,5.20
2023-03-15T04:59:17.542Z,4.10
2023-03-15T05:01:44.707Z,2.97
2023-03-15T05:04:12.063Z,4.00
2023-03-15T05:06:39.511Z,4.65
2023-03-15T05:09:08.925Z,4.78
2023-03-15T05:11:36.103Z,4.00
2023-03-15T05:14:03.184Z,4.30
2023-03-15T05:16:30.353Z,4.25
2023-03-15T05:18:57.672Z,4.30
2023-03-15T05:21:24.773Z,3.72
2023-03-15T05:23:51.710Z,3.67
2023-03-15T05:26:18.860Z,4.20
2023-03-15T05:28:46.037Z,3.90
2023-03-15T05:31:13.193Z,4.22
2023-03-15T05:33:48.745Z,3.88
2023-03-15T05:36:16.230Z,3.20
2023-03-15T05:38:45.483Z,3.67
2023-03-15T05:41:17.936Z,3.88
2023-03-15T05:43:45.124Z,4.07
2023-03-15T05:46:12.330Z,3.72
2023-03-15T05:48:39.358Z,3.95
2023-03-15T05:51:06.514Z,3.20
2023-03-15T05:53:33.822Z,4.18
2023-03-15T05:56:01.131Z,4.38
2023-03-15T05:58:36.634Z,4.10
2023-03-15T06:01:04.647Z,3.05
2023-03-15T06:03:32.374Z,3.00
2023-03-15T06:05:59.807Z,2.70
2023-03-15T06:08:27.426Z,2.92
2023-03-15T06:10:57.315Z,3.38
2023-03-15T06:13:24.235Z,2.67
2023-03-15T06:15:51.446Z,3.20
2023-03-15T06:18:18.557Z,3.30
2023-03-15T06:20:45.644Z,2.90
2023-03-15T06:23:12.539Z,3.33
2023-03-15T06:25:39.692Z,3.83
2023-03-15T06:28:06.505Z,3.55
2023-03-15T06:30:34.945Z,3.05
2023-03-15T06:33:02.010Z,3.25
2023-03-15T06:35:29.218Z,2.65
2023-03-15T06:37:56.189Z,2.42
2023-03-15T06:40:23.428Z,2.45
2023-03-15T06:42:50.453Z,2.25
2023-03-15T06:45:17.662Z,2.33
2023-03-15T06:47:44.521Z,2.72
2023-03-15T06:50:11.991Z,1.85
2023-03-15T06:52:39.066Z,2.30
2023-03-15T06:55:06.737Z,2.63
2023-03-15T06:57:33.632Z,2.85
2023-03-15T07:00:00.812Z,2.65
2023-03-15T07:02:27.750Z,2.45
2023-03-15T07:04:54.978Z,25.65
2023-03-15T07:07:21.917Z,2.33
2023-03-15T07:09:49.035Z,2.80
2023-03-15T07:12:15.982Z,2.17
2023-03-15T07:14:43.358Z,2.50
2023-03-15T07:17:10.315Z,4.20
2023-03-15T07:19:46.836Z,2.50
2023-03-15T07:22:24.807Z,2.22
2023-03-15T07:24:52.334Z,2.10
2023-03-15T07:27:19.618Z,1.95
2023-03-15T07:29:47.140Z,1.63
2023-03-15T07:32:14.155Z,2.17
2023-03-15T07:34:41.824Z,2.35
2023-03-15T07:37:09.000Z,2.30
2023-03-15T07:39:36.259Z,3.63
2023-03-15T07:42:03.406Z,2.30
2023-03-15T07:44:30.747Z,1.98
2023-03-15T07:46:57.805Z,4.20
2023-03-15T07:49:25.016Z,2.33
2023-03-15T07:51:52.076Z,1.98
2023-03-15T07:54:20.431Z,2.10
2023-03-15T07:56:47.306Z,2.17
2023-03-15T07:59:14.453Z,2.17
2023-03-15T08:01:41.396Z,2.30
2023-03-15T08:04:08.823Z,1.98
2023-03-15T08:06:35.729Z,3.40
2023-03-15T08:09:05.809Z,2.90
2023-03-15T08:11:33.766Z,4.65
2023-03-15T08:14:01.025Z,4.55
2023-03-15T08:16:27.967Z,2.50
2023-03-15T08:18:55.088Z,2.60
2023-03-15T08:21:22.292Z,2.78
2023-03-15T08:23:49.440Z,1.63
2023-03-15T08:26:16.367Z,1.80
2023-03-15T08:28:43.717Z,2.28
2023-03-15T08:31:14.257Z,2.08
2023-03-15T08:33:41.471Z,2.20
2023-03-15T08:36:08.537Z,2.13
2023-03-15T08:38:35.888Z,3.13
2023-03-15T08:41:03.608Z,2.30
2023-03-15T08:43:30.932Z,1.75
2023-03-15T08:46:01.394Z,2.20
2023-03-15T08:48:37.696Z,2.30
2023-03-15T08:51:08.994Z,2.72
2023-03-15T08:53:37.844Z,2.35
2023-03-15T08:56:04.897Z,2.28
2023-03-15T08:58:32.400Z,1.73
2023-03-15T09:00:59.310Z,2.00
2023-03-15T09:03:26.465Z,2.10
2023-03-15T09:06:00.669Z,2.42
2023-03-15T09:08:27.785Z,2.22
2023-03-15T09:10:56.366Z,2.13
2023-03-15T09:13:28.483Z,1.77
2023-03-15T09:15:56.985Z,2.20
2023-03-15T09:18:24.874Z,1.98
2023-03-15T09:20:51.919Z,1.92
2023-03-15T09:23:19.059Z,2.38
2023-03-15T09:25:45.947Z,1.80
2023-03-15T09:28:13.068Z,2.10
2023-03-15T09:30:41.823Z,2.05
2023-03-15T09:33:09.965Z,1.83
2023-03-15T09:35:37.079Z,2.20
2023-03-15T09:38:04.435Z,1.70
2023-03-15T09:40:34.271Z,2.47
2023-03-15T09:43:43.625Z,2.40
2023-03-15T09:49:00.726Z,2.17
2023-03-15T09:51:39.707Z,2.00
2023-03-15T09:54:20.510Z,2.67
2023-03-15T09:56:58.189Z,2.55
2023-03-15T09:59:32.828Z,2.08
2023-03-15T10:02:04.206Z,1.80
2023-03-15T10:04:42.248Z,2.10
2023-03-15T10:09:41.223Z,1.73
2023-03-15T10:12:14.767Z,2.40
2023-03-15T10:15:03.639Z,2.22
2023-03-15T10:17:39.432Z,1.77
2023-03-15T10:20:19.131Z,2.00
2023-03-15T10:23:00.906Z,2.25
2023-03-15T10:25:31.262Z,2.05
2023-03-15T10:28:24.529Z,1.95
2023-03-15T10:30:52.578Z,1.88
2023-03-15T10:33:22.445Z,1.92
2023-03-15T10:35:51.043Z,2.10
2023-03-15T10:38:29.688Z,1.50
2023-03-15T10:41:00.354Z,1.40
2023-03-15T10:43:34.960Z,1.90
2023-03-15T10:46:04.177Z,1.58
2023-03-15T10:48:33.771Z,1.70
2023-03-15T10:51:41.595Z,1.73
2023-03-15T10:54:16.578Z,1.88
2023-03-15T10:56:48.861Z,1.42
2023-03-15T10:59:22.177Z,1.77
2023-03-15T11:01:52.640Z,1.98
2023-03-15T11:04:28.841Z,2.13
2023-03-15T11:06:58.835Z,1.88
2023-03-15T11:09:27.181Z,1.67
2023-03-15T11:12:24.233Z,2.50
2023-03-15T11:14:56.377Z,1.90
2023-03-15T11:17:27.172Z,1.77
2023-03-15T11:19:57.246Z,3.17
2023-03-15T11:22:24.941Z,2.17
2023-03-15T11:24:54.763Z,2.20
2023-03-15T11:27:32.028Z,2.30
2023-03-15T11:30:09.582Z,2.13
2023-03-15T11:32:37.397Z,2.85
2023-03-15T11:35:07.931Z,2.97
2023-03-15T11:37:50.050Z,2.70
2023-03-15T11:40:18.859Z,2.70
2023-03-15T11:43:00.317Z,2.20
2023-03-15T11:45:59.226Z,2.00
2023-03-15T11:48:36.913Z,2.50
2023-03-15T11:51:05.890Z,1.92
2023-03-15T11:53:50.307Z,2.10
2023-03-15T11:56:28.081Z,2.20
2023-03-15T11:59:07.347Z,2.42
2023-03-15T12:01:38.364Z,2.05
2023-03-15T12:04:25.199Z,2.05
2023-03-15T12:06:54.255Z,2.10
2023-03-15T12:09:33.643Z,1.95
2023-03-15T12:12:24.681Z,2.20
2023-03-15T12:15:22.087Z,3.28
2023-03-15T12:18:06.487Z,2.30
2023-03-15T12:20:43.010Z,7.45
2023-03-15T12:23:18.972Z,1.98
2023-03-15T12:25:57.283Z,2.25
2023-03-15T12:28:34.167Z,2.20
2023-03-15T12:31:06.559Z,2.78
2023-03-15T12:33:55.167Z,2.30
2023-03-15T12:36:41.187Z,2.25
2023-03-15T12:39:14.128Z,2.45
2023-03-15T12:41:51.557Z,2.63
2023-03-15T12:44:33.738Z,3.00
2023-03-15T12:47:08.432Z,2.95
2023-03-15T12:50:02.425Z,1.98
2023-03-15T12:52:41.987Z,1.90
2023-03-15T12:55:18.518Z,2.10
2023-03-15T12:57:57.995Z,1.90
2023-03-15T13:00:29.136Z,2.15
2023-03-15T13:03:06.992Z,2.63
2023-03-15T13:06:11.174Z,2.20
2023-03-15T13:08:50.939Z,2.88
2023-03-15T13:11:37.865Z,2.78
2023-03-15T13:14:21.617Z,3.05
2023-03-15T13:16:59.636Z,2.53
2023-03-15T13:19:32.993Z,8.70
2023-03-15T13:22:12.508Z,2.70
2023-03-15T13:25:13.237Z,2.38
2023-03-15T13:27:40.137Z,3.25
2023-03-15T13:30:26.216Z,3.00
2023-03-15T13:33:19.367Z,2.55
2023-03-15T13:36:15.250Z,2.35
2023-03-15T13:38:43.408Z,2.58
2023-03-15T13:41:29.841Z,3.28
2023-03-15T13:44:00.524Z,2.30
2023-03-15T13:46:37.704Z,2.80
2023-03-15T13:49:04.745Z,3.05
2023-03-15T13:51:39.570Z,2.30
2023-03-15T13:54:20.140Z,3.80
2023-03-15T13:57:06.231Z,3.00
2023-03-15T13:59:42.964Z,2.47
2023-03-15T14:02:46.163Z,2.50
2023-03-15T14:05:17.105Z,2.75
2023-03-15T14:07:55.666Z,2.75
2023-03-15T14:10:39.645Z,2.10
2023-03-15T14:13:27.693Z,2.15
2023-03-15T14:16:34.850Z,1.70
2023-03-15T14:19:18.477Z,2.08
2023-03-15T14:21:51.397Z,2.65
2023-03-15T14:24:38.613Z,2.13
2023-03-15T14:27:17.253Z,3.22
2023-03-15T14:29:57.175Z,2.08
2023-03-15T14:32:38.819Z,1.95
2023-03-15T14:35:20.339Z,1.98
2023-03-15T14:37:55.870Z,2.15
2023-03-15T14:40:35.277Z,2.40
2023-03-15T14:43:11.900Z,2.20
2023-03-15T14:45:51.250Z,1.95
2023-03-15T14:48:29.566Z,1.90
2023-03-15T14:50:56.859Z,2.55
2023-03-15T14:53:29.146Z,2.00
2023-03-15T14:55:56.519Z,1.88
2023-03-15T14:58:23.422Z,2.33
2023-03-15T15:00:54.177Z,2.33
2023-03-15T15:03:38.723Z,3.03
2023-03-15T15:06:09.468Z,2.60
2023-03-15T15:08:40.061Z,2.40
2023-03-15T15:11:11.150Z,3.70
2023-03-15T15:13:39.437Z,2.60
2023-03-15T15:16:07.634Z,2.50
2023-03-15T15:18:37.083Z,2.47
2023-03-15T15:21:31.221Z,2.47
2023-03-15T15:24:02.931Z,3.85
2023-03-15T15:26:31.641Z,4.07
2023-03-15T15:28:59.391Z,3.42
2023-03-15T15:31:28.400Z,5.03
2023-03-15T15:33:57.040Z,3.05
2023-03-15T15:36:31.239Z,2.00
2023-03-15T15:39:08.106Z,2.00
2023-03-15T15:41:35.430Z,2.05
2023-03-15T15:44:02.368Z,2.15
2023-03-15T15:46:29.571Z,1.75
2023-03-15T15:48:56.447Z,2.00
2023-03-15T15:51:32.089Z,2.15
2023-03-15T15:54:00.880Z,2.20
2023-03-15T15:56:40.106Z,1.67
2023-03-15T15:59:18.598Z,2.50
2023-03-15T16:02:00.220Z,2.15
2023-03-15T16:04:36.039Z,2.45
2023-03-15T16:07:04.294Z,2.65
2023-03-15T16:09:33.744Z,2.47
2023-03-15T16:12:01.044Z,3.20
2023-03-15T16:14:28.103Z,2.80
2023-03-15T16:16:55.314Z,3.05
2023-03-15T16:19:22.179Z,3.22
2023-03-15T16:21:52.073Z,3.50
2023-03-15T16:24:26.683Z,3.13
2023-03-15T16:27:01.036Z,2.80
2023-03-15T16:29:38.143Z,2.60
2023-03-15T16:32:17.634Z,2.63
2023-03-15T16:34:52.265Z,3.17
2023-03-15T16:37:49.051Z,2.85
2023-03-15T16:42:49.766Z,2.88
2023-03-15T16:45:16.920Z,2.88
2023-03-15T16:47:44.445Z,2.90
2023-03-15T16:50:12.179Z,3.13
2023-03-15T16:52:39.893Z,3.22
2023-03-15T16:55:07.047Z,2.70
2023-03-15T16:57:34.600Z,5.07
2023-03-15T17:00:03.937Z,4.60
2023-03-15T17:02:32.367Z,4.07
2023-03-15T17:04:59.303Z,5.25
2023-03-15T17:07:33.986Z,3.80
2023-03-15T17:10:09.565Z,3.17
2023-03-15T17:12:38.227Z,3.53
2023-03-15T17:15:06.322Z,3.20
2023-03-15T17:17:36.149Z,3.20
2023-03-15T17:20:06.867Z,4.22
2023-03-15T17:22:34.248Z,3.90
2023-03-15T17:25:01.402Z,4.38
2023-03-15T17:27:39.295Z,4.28
2023-03-15T17:30:48.499Z,4.05
2023-03-15T17:33:17.170Z,3.47
2023-03-15T17:35:54.837Z,3.50
2023-03-15T17:38:22.395Z,3.85
2023-03-15T17:40:49.660Z,3.50
2023-03-15T17:43:17.386Z,3.05
2023-03-15T17:45:44.324Z,3.10
2023-03-15T17:48:11.715Z,3.35
2023-03-15T17:50:38.951Z,4.03
2023-03-15T17:53:18.079Z,4.03
2023-03-15T17:55:46.395Z,4.40
2023-03-15T17:58:21.707Z,3.80
2023-03-15T18:00:58.179Z,4.90
2023-03-15T18:03:25.954Z,4.35
2023-03-15T18:05:53.090Z,3.88
2023-03-15T18:08:21.506Z,3.67
2023-03-15T18:10:50.393Z,3.33
2023-03-15T18:13:21.478Z,4.18
2023-03-15T18:15:56.870Z,3.90
2023-03-15T18:18:24.346Z,3.78
2023-03-15T18:20:51.336Z,3.72
2023-03-15T18:23:18.989Z,4.00
2023-03-15T18:25:48.279Z,4.07
2023-03-15T18:28:15.678Z,4.28
2023-03-15T18:30:44.225Z,5.80
2023-03-15T18:33:12.193Z,5.55
2023-03-15T18:35:39.374Z,5.85
2023-03-15T18:38:06.547Z,7.38
2023-03-15T18:40:34.853Z,6.20
2023-03-15T18:43:04.203Z,11.38
2023-03-15T18:45:34.339Z,9.43
2023-03-15T18:48:01.596Z,6.68
2023-03-15T18:50:29.622Z,6.70
2023-03-15T18:52:57.577Z,5.80
2023-03-15T18:55:24.756Z,5.90
2023-03-15T18:57:53.866Z,8.52
2023-03-15T19:00:26.335Z,6.65
2023-03-15T19:02:55.956Z,6.95
2023-03-15T19:05:23.737Z,6.97
2023-03-15T19:07:51.183Z,6.72
2023-03-15T19:10:19.692Z,6.65
2023-03-15T19:12:48.382Z,7.80
2023-03-15T19:15:17.790Z,6.28
2023-03-15T19:17:46.975Z,6.07
2023-03-15T19:20:16.927Z,6.95
2023-03-15T19:22:53.472Z,11.85
2023-03-15T19:25:21.080Z,14.40
2023-03-15T19:27:48.750Z,13.68
2023-03-15T19:30:18.986Z,13.88
2023-03-15T19:32:48.150Z,12.63
2023-03-15T19:35:17.747Z,9.15
2023-03-15T19:37:46.440Z,8.38
2023-03-15T19:40:15.480Z,8.00
2023-03-15T19:42:42.852Z,10.57
2023-03-15T19:45:10.250Z,9.43
2023-03-15T19:47:37.447Z,8.68
2023-03-15T19:50:24.365Z,9.75
2023-03-15T19:52:51.502Z,9.20
2023-03-15T19:55:20.515Z,8.65
2023-03-15T19:57:48.486Z,10.15
2023-03-15T20:00:16.667Z,10.48
2023-03-15T20:02:52.705Z,10.32
2023-03-15T20:05:20.729Z,10.45
2023-03-15T20:07:56.852Z,11.43
2023-03-15T20:10:24.174Z,9.90
2023-03-15T20:12:51.478Z,9.23
2023-03-15T20:15:19.348Z,9.70
2023-03-15T20:17:46.622Z,10.95
2023-03-15T20:20:14.651Z,12.85
2023-03-15T20:22:43.957Z,11.48
2023-03-15T20:25:12.862Z,10.63
2023-03-15T20:27:40.248Z,8.75
2023-03-15T20:30:09.129Z,8.40
2023-03-15T20:32:36.448Z,7.93
2023-03-15T20:35:11.531Z,9.10
2023-03-15T20:37:43.014Z,7.70
2023-03-15T20:40:13.533Z,7.28
2023-03-15T20:42:41.861Z,7.57
2023-03-15T20:45:10.293Z,8.77
2023-03-15T20:47:38.212Z,7.18
2023-03-15T20:50:08.798Z,9.25
2023-03-15T20:52:36.045Z,7.65
2023-03-15T20:55:03.780Z,8.07
2023-03-15T20:57:33.211Z,8.23
2023-03-15T21:00:00.182Z,7.75
2023-03-15T21:02:27.422Z,8.18
2023-03-15T21:04:54.356Z,9.10
2023-03-15T21:07:21.691Z,9.65
2023-03-15T21:09:48.614Z,9.32
2023-03-15T21:12:15.849Z,9.27
2023-03-15T21:14:43.340Z,9.65
2023-03-15T21:17:10.487Z,10.15
2023-03-15T21:19:37.436Z,9.95
2023-03-15T21:22:04.543Z,9.82
2023-03-15T21:24:32.543Z,9.13
2023-03-15T21:27:06.318Z,10.13
2023-03-15T21:29:33.964Z,8.68
2023-03-15T21:32:01.307Z,10.18
2023-03-15T21:34:28.431Z,10.80
2023-03-15T21:36:55.582Z,9.13
2023-03-15T21:39:22.682Z,13.23
2023-03-15T21:41:49.893Z,10.68
2023-03-15T21:44:16.763Z,10.13
2023-03-15T21:46:46.926Z,10.07
2023-03-15T21:49:13.879Z,10.38
2023-03-15T21:51:46.229Z,10.05
2023-03-15T21:54:16.209Z,11.45
2023-03-15T21:56:43.721Z,11.20
2023-03-15T21:59:10.880Z,10.85
2023-03-15T22:01:38.105Z,11.68
2023-03-15T22:04:05.227Z,13.32
2023-03-15T22:06:32.874Z,13.40
2023-03-15T22:08:59.803Z,12.25
2023-03-15T22:11:27.114Z,12.10
2023-03-15T22:13:53.996Z,13.13
2023-03-15T22:16:21.296Z,9.63
2023-03-15T22:18:48.193Z,10.68
2023-03-15T22:21:15.362Z,11.50
2023-03-15T22:23:42.185Z,11.68
2023-03-15T22:26:09.857Z,10.07
2023-03-15T22:28:37.352Z,9.90
2023-03-15T22:31:04.653Z,9.93
2023-03-15T22:33:32.037Z,10.70
2023-03-15T22:35:59.463Z,10.02
2023-03-15T22:38:26.908Z,8.68
2023-03-15T22:41:02.079Z,9.65
2023-03-15T22:43:29.358Z,7.57
2023-03-15T22:45:56.679Z,8.40
2023-03-15T22:48:23.701Z,9.18
2023-03-15T22:50:59.277Z,9.18
2023-03-15T22:53:26.431Z,9.18
2023-03-15T22:55:53.733Z,8.18
2023-03-15T22:58:21.146Z,8.23
2023-03-15T23:00:48.887Z,9.13
2023-03-15T23:03:16.275Z,9.05
2023-03-15T23:05:43.444Z,8.32
2023-03-15T23:08:10.462Z,8.63
2023-03-15T23:10:40.808Z,8.15
2023-03-15T23:13:09.665Z,8.75
2023-03-15T23:15:36.895Z,8.60
2023-03-15T23:18:05.343Z,7.82
2023-03-15T23:20:32.991Z,7.90
2023-03-15T23:22:59.854Z,7.63
2023-03-15T23:25:29.928Z,7.15
2023-03-15T23:27:57.095Z,6.85
2023-03-15T23:30:24.352Z,8.00
2023-03-15T23:32:57.564Z,8.55
2023-03-15T23:35:25.191Z,6.95
2023-03-15T23:37:53.125Z,7.88
2023-03-15T23:40:21.218Z,7.38
2023-03-15T23:42:56.421Z,7.88
2023-03-15T23:45:23.528Z,7.97
2023-03-15T23:47:50.463Z,11.20
2023-03-15T23:50:17.840Z,10.05
2023-03-15T23:52:44.761Z,9.32
2023-03-15T23:55:11.946Z,8.68
2023-03-15T23:57:38.920Z,7.03
